createdAt,value
2018-01-14T00:00:39.895Z,0
2018-01-14T00:01:50.058Z,0
2018-01-14T00:03:00.300Z,0
2018-01-14T00:04:10.547Z,0
2018-01-14T00:05:20.419Z,0
2018-01-14T00:06:30.561Z,0
2018-01-14T00:07:40.721Z,0
2018-01-14T00:08:50.863Z,0
2018-01-14T00:10:01.070Z,0
2018-01-14T00:11:11.263Z,0
2018-01-14T00:12:21.490Z,0
2018-01-14T00:13:31.415Z,0
2018-01-14T00:14:41.588Z,0
2018-01-14T00:15:51.743Z,0
2018-01-14T00:17:01.922Z,0
2018-01-14T00:18:12.214Z,0
2018-01-14T00:19:22.400Z,0
2018-01-14T00:20:32.604Z,0
2018-01-14T00:21:42.829Z,0
2018-01-14T00:22:53.004Z,0
2018-01-14T00:24:03.173Z,0
2018-01-14T00:25:13.354Z,0
2018-01-14T00:26:23.556Z,0
2018-01-14T00:27:33.722Z,0
2018-01-14T00:28:43.858Z,0
2018-01-14T00:29:54.015Z,0
2018-01-14T00:31:03.877Z,0
2018-01-14T00:32:14.081Z,0
2018-01-14T00:33:24.236Z,0
2018-01-14T00:34:34.466Z,0
2018-01-14T00:35:44.666Z,0
2018-01-14T00:36:54.855Z,0
2018-01-14T00:38:04.985Z,0
2018-01-14T00:39:15.152Z,0
2018-01-14T00:40:25.299Z,0
2018-01-14T00:41:35.198Z,0
2018-01-14T00:42:45.331Z,0
2018-01-14T00:43:55.503Z,0
2018-01-14T00:45:05.802Z,0
2018-01-14T00:46:15.934Z,0
2018-01-14T00:47:26.085Z,0
2018-01-14T00:48:36.193Z,0
2018-01-14T00:49:46.332Z,0
2018-01-14T00:50:56.492Z,0
2018-01-14T00:52:06.390Z,0
2018-01-14T00:53:16.511Z,0
2018-01-14T00:54:26.666Z,0
2018-01-14T00:55:36.868Z,0
2018-01-14T00:56:47.106Z,0
2018-01-14T00:57:57.233Z,0
2018-01-14T00:59:07.423Z,0
2018-01-14T01:00:17.566Z,0
2018-01-14T01:01:27.779Z,0
2018-01-14T01:02:37.978Z,0
2018-01-14T01:03:48.091Z,0
2018-01-14T01:04:58.210Z,0
2018-01-14T01:06:08.392Z,0
2018-01-14T01:07:18.526Z,0
2018-01-14T01:08:28.957Z,0
2018-01-14T01:09:39.142Z,0
2018-01-14T01:10:49.091Z,0
2018-01-14T01:11:59.339Z,0
2018-01-14T01:14:53.635Z,0
2018-01-14T01:16:03.767Z,0
2018-01-14T01:17:13.908Z,0
2018-01-14T01:18:24.063Z,0
2018-01-14T01:19:33.986Z,0
2018-01-14T01:20:44.183Z,0
2018-01-14T01:21:54.377Z,0
2018-01-14T01:23:05.617Z,0
2018-01-14T01:24:15.900Z,0
2018-01-14T01:25:26.092Z,0
2018-01-14T01:26:36.255Z,0
2018-01-14T01:27:46.224Z,0
2018-01-14T01:28:56.331Z,0
2018-01-14T01:30:06.479Z,0
2018-01-14T01:31:16.649Z,0
2018-01-14T01:32:26.837Z,0
2018-01-14T01:33:37.119Z,0
2018-01-14T01:34:47.273Z,0
2018-01-14T01:35:57.458Z,0
2018-01-14T01:37:07.369Z,0
2018-01-14T01:38:17.548Z,0
2018-01-14T01:39:27.648Z,0
2018-01-14T01:40:37.853Z,0
2018-01-14T01:41:47.995Z,0
2018-01-14T01:42:58.143Z,0
2018-01-14T01:44:08.245Z,0
2018-01-14T01:45:18.366Z,0
2018-01-14T01:46:28.583Z,0
2018-01-14T01:47:38.852Z,0
2018-01-14T01:49:03.787Z,0
2018-01-14T01:50:13.985Z,0
2018-01-14T01:51:24.096Z,0
2018-01-14T01:52:34.212Z,0
2018-01-14T01:53:44.307Z,0
2018-01-14T01:54:54.414Z,0
2018-01-14T01:56:04.597Z,0
2018-01-14T01:57:14.534Z,0
2018-01-14T01:58:24.664Z,0
2018-01-14T01:59:34.803Z,0
2018-01-14T02:00:44.941Z,0
2018-01-14T02:01:55.169Z,0
2018-01-14T02:03:05.040Z,0
2018-01-14T02:04:15.184Z,0
2018-01-14T02:05:25.123Z,0
2018-01-14T02:06:35.246Z,0
2018-01-14T02:07:45.370Z,0
2018-01-14T02:08:55.557Z,0
2018-01-14T02:10:05.734Z,0
2018-01-14T02:11:15.863Z,0
2018-01-14T02:12:25.995Z,0
2018-01-14T02:13:36.235Z,0
2018-01-14T02:14:46.351Z,0
2018-01-14T02:15:56.236Z,0
2018-01-14T02:17:06.117Z,0
2018-01-14T02:18:16.327Z,0
2018-01-14T02:19:26.483Z,0
2018-01-14T02:20:36.309Z,0
2018-01-14T02:21:46.490Z,0
2018-01-14T02:22:56.705Z,0
2018-01-14T02:24:06.827Z,0
2018-01-14T02:25:17.092Z,0
2018-01-14T02:26:27.309Z,0
2018-01-14T02:27:37.506Z,0
2018-01-14T02:28:47.786Z,0
2018-01-14T02:29:57.964Z,0
2018-01-14T02:31:08.246Z,0
2018-01-14T02:32:18.392Z,0
2018-01-14T02:33:28.698Z,0
2018-01-14T02:34:38.610Z,0
2018-01-14T02:35:48.734Z,0
2018-01-14T02:36:58.928Z,0
2018-01-14T02:38:09.054Z,0
2018-01-14T02:39:19.238Z,0
2018-01-14T02:40:29.330Z,0
2018-01-14T02:41:39.490Z,0
2018-01-14T02:42:49.610Z,0
2018-01-14T02:43:59.730Z,0
2018-01-14T02:45:09.875Z,0
2018-01-14T02:46:20.146Z,0
2018-01-14T02:47:30.318Z,0
2018-01-14T02:48:40.506Z,0
2018-01-14T02:49:50.738Z,0
2018-01-14T02:51:00.900Z,0
2018-01-14T02:52:11.071Z,0
2018-01-14T02:53:21.210Z,0
2018-01-14T02:54:31.368Z,0
2018-01-14T02:55:41.231Z,0
2018-01-14T02:56:51.459Z,0
2018-01-14T02:58:01.762Z,0
2018-01-14T02:59:11.883Z,0
2018-01-14T03:00:21.991Z,0
2018-01-14T03:01:32.098Z,0
2018-01-14T03:02:42.290Z,0
2018-01-14T03:03:52.445Z,0
2018-01-14T03:05:02.680Z,0
2018-01-14T03:06:12.562Z,0
2018-01-14T03:07:22.723Z,0
2018-01-14T03:08:32.861Z,0
2018-01-14T03:09:43.165Z,0
2018-01-14T03:10:53.284Z,0
2018-01-14T03:12:03.432Z,0
2018-01-14T03:13:13.688Z,0
2018-01-14T03:14:23.952Z,0
2018-01-14T03:15:34.097Z,0
2018-01-14T03:16:44.312Z,0
2018-01-14T03:17:54.441Z,0
2018-01-14T03:19:04.560Z,0
2018-01-14T03:20:14.691Z,0
2018-01-14T03:21:24.571Z,0
2018-01-14T03:22:34.680Z,0
2018-01-14T03:23:44.820Z,0
2018-01-14T03:24:54.986Z,0
2018-01-14T03:26:06.189Z,0
2018-01-14T03:27:16.360Z,0
2018-01-14T03:28:26.465Z,0
2018-01-14T03:29:36.598Z,0
2018-01-14T03:30:47.045Z,0
2018-01-14T03:31:57.225Z,0
2018-01-14T03:33:07.369Z,0
2018-01-14T03:34:17.517Z,0
2018-01-14T03:35:27.633Z,0
2018-01-14T03:36:37.732Z,0
2018-01-14T03:37:47.889Z,0
2018-01-14T03:38:58.095Z,0
2018-01-14T03:40:08.297Z,0
2018-01-14T03:41:18.625Z,0
2018-01-14T03:42:28.837Z,0
2018-01-14T03:43:39.009Z,0
2018-01-14T03:44:49.297Z,0
2018-01-14T03:45:59.144Z,0
2018-01-14T03:47:09.286Z,0
2018-01-14T03:48:19.429Z,0
2018-01-14T03:49:29.622Z,0
2018-01-14T03:50:39.803Z,0
2018-01-14T03:51:50.050Z,0
2018-01-14T03:53:00.258Z,0
2018-01-14T03:54:10.495Z,0
2018-01-14T03:55:20.603Z,0
2018-01-14T03:56:30.697Z,0
2018-01-14T03:57:40.874Z,0
2018-01-14T03:58:50.985Z,0
2018-01-14T04:00:01.142Z,0
2018-01-14T04:01:11.353Z,0
2018-01-14T04:02:21.511Z,0
2018-01-14T04:03:31.623Z,0
2018-01-14T04:04:41.833Z,0
2018-01-14T04:05:51.990Z,0
2018-01-14T04:07:02.139Z,0
2018-01-14T04:08:12.279Z,0
2018-01-14T04:09:22.128Z,0
2018-01-14T04:10:32.235Z,0
2018-01-14T04:11:42.440Z,0
2018-01-14T04:12:52.652Z,0
2018-01-14T04:14:02.870Z,0
2018-01-14T04:15:12.983Z,0
2018-01-14T04:16:23.121Z,0
2018-01-14T04:17:33.216Z,0
2018-01-14T04:18:43.329Z,0
2018-01-14T04:19:53.514Z,0
2018-01-14T04:21:03.746Z,0
2018-01-14T04:22:13.895Z,0
2018-01-14T04:23:24.026Z,0
2018-01-14T04:24:34.168Z,0
2018-01-14T04:25:44.292Z,0
2018-01-14T04:26:54.404Z,0
2018-01-14T04:28:04.584Z,0
2018-01-14T04:29:14.771Z,0
2018-01-14T04:30:24.940Z,0
2018-01-14T04:31:35.166Z,0
2018-01-14T04:32:45.418Z,0
2018-01-14T04:33:55.658Z,0
2018-01-14T04:35:05.879Z,0
2018-01-14T04:36:16.018Z,0
2018-01-14T04:37:26.254Z,0
2018-01-14T04:38:36.374Z,0
2018-01-14T04:39:46.463Z,0
2018-01-14T04:40:56.402Z,0
2018-01-14T04:42:06.269Z,0
2018-01-14T04:43:16.461Z,0
2018-01-14T04:44:26.693Z,0
2018-01-14T04:45:36.972Z,0
2018-01-14T04:46:47.106Z,0
2018-01-14T04:47:57.275Z,0
2018-01-14T04:49:07.429Z,0
2018-01-14T04:50:17.539Z,0
2018-01-14T04:51:27.642Z,0
2018-01-14T04:52:37.764Z,0
2018-01-14T04:53:47.924Z,0
2018-01-14T04:54:58.168Z,0
2018-01-14T04:56:08.323Z,0
2018-01-14T04:57:18.530Z,0
2018-01-14T04:58:28.404Z,0
2018-01-14T04:59:38.519Z,0
2018-01-14T05:00:48.793Z,0
2018-01-14T05:01:59.056Z,0
2018-01-14T05:03:09.261Z,0
2018-01-14T05:04:19.186Z,0
2018-01-14T05:05:28.968Z,0
2018-01-14T05:06:39.091Z,0
2018-01-14T05:07:49.228Z,0
2018-01-14T05:08:59.358Z,0
2018-01-14T05:10:09.631Z,0
2018-01-14T05:11:19.736Z,0
2018-01-14T05:12:30.092Z,0
2018-01-14T05:13:40.284Z,0
2018-01-14T05:14:50.558Z,0
2018-01-14T05:16:00.383Z,0
2018-01-14T05:17:10.258Z,0
2018-01-14T05:18:20.364Z,0
2018-01-14T05:19:30.468Z,0
2018-01-14T05:20:40.758Z,0
2018-01-14T05:21:51.080Z,0
2018-01-14T05:23:01.234Z,0
2018-01-14T05:24:11.340Z,0
2018-01-14T05:25:21.523Z,0
2018-01-14T05:26:31.701Z,0
2018-01-14T05:27:41.830Z,0
2018-01-14T05:28:51.945Z,0
2018-01-14T05:30:02.045Z,0
2018-01-14T05:31:12.192Z,0
2018-01-14T05:32:22.051Z,0
2018-01-14T05:33:32.156Z,0
2018-01-14T05:34:42.277Z,0
2018-01-14T05:35:52.380Z,0
2018-01-14T05:37:02.498Z,0
2018-01-14T05:38:12.627Z,0
2018-01-14T05:39:22.777Z,0
2018-01-14T05:40:32.870Z,0
2018-01-14T05:41:42.980Z,0
2018-01-14T05:42:53.078Z,0
2018-01-14T05:44:03.190Z,0
2018-01-14T05:45:13.310Z,0
2018-01-14T05:46:23.184Z,0
2018-01-14T05:47:33.297Z,0
2018-01-14T05:48:43.450Z,0
2018-01-14T05:49:53.535Z,0
2018-01-14T05:51:03.639Z,0
2018-01-14T05:52:13.516Z,0
2018-01-14T05:53:23.629Z,0
2018-01-14T05:54:33.745Z,0
2018-01-14T05:55:43.890Z,0
2018-01-14T05:56:54.092Z,0
2018-01-14T05:58:04.245Z,0
2018-01-14T05:59:14.526Z,0
2018-01-14T06:00:24.723Z,0
2018-01-14T06:01:34.867Z,0
2018-01-14T06:02:45.039Z,0
2018-01-14T06:03:55.211Z,0
2018-01-14T06:05:05.376Z,0
2018-01-14T06:06:15.515Z,0
2018-01-14T06:07:25.756Z,0
2018-01-14T06:08:35.881Z,0
2018-01-14T06:09:46.064Z,0
2018-01-14T06:10:56.248Z,0
2018-01-14T06:12:06.373Z,0
2018-01-14T06:13:16.472Z,0
2018-01-14T06:14:26.614Z,0
2018-01-14T06:15:36.770Z,0
2018-01-14T06:16:46.870Z,0
2018-01-14T06:17:57.093Z,0
2018-01-14T06:19:07.228Z,0
2018-01-14T06:20:17.366Z,0
2018-01-14T06:21:27.504Z,0
2018-01-14T06:22:37.691Z,0
2018-01-14T06:23:47.839Z,0
2018-01-14T06:24:57.956Z,0
2018-01-14T06:26:08.228Z,0
2018-01-14T06:27:18.345Z,0
2018-01-14T06:28:28.246Z,0
2018-01-14T06:29:38.358Z,0
2018-01-14T06:30:48.503Z,0
2018-01-14T06:31:58.599Z,0
2018-01-14T06:33:08.714Z,0
2018-01-14T06:34:18.818Z,0
2018-01-14T06:35:29.079Z,0
2018-01-14T06:36:39.216Z,4
2018-01-14T06:37:49.462Z,0
2018-01-14T06:38:59.692Z,4
2018-01-14T06:40:09.827Z,0
2018-01-14T06:41:19.936Z,4
2018-01-14T06:42:29.668Z,0
2018-01-14T06:43:39.781Z,4
2018-01-14T06:44:49.966Z,4
2018-01-14T06:46:00.066Z,8
2018-01-14T06:47:10.201Z,4
2018-01-14T06:48:20.602Z,8
2018-01-14T06:49:31.728Z,8
2018-01-14T06:50:41.861Z,12
2018-01-14T06:51:52.294Z,16
2018-01-14T06:53:02.162Z,20
2018-01-14T06:54:12.048Z,20
2018-01-14T06:55:22.331Z,24
2018-01-14T06:56:32.506Z,28
2018-01-14T06:57:42.678Z,36
2018-01-14T06:58:52.928Z,36
2018-01-14T07:00:03.050Z,44
2018-01-14T07:01:12.957Z,52
2018-01-14T07:02:23.122Z,60
2018-01-14T07:03:33.579Z,72
2018-01-14T07:04:43.693Z,80
2018-01-14T07:05:53.828Z,96
2018-01-14T07:07:03.712Z,104
2018-01-14T07:08:13.817Z,120
2018-01-14T07:09:23.992Z,136
2018-01-14T07:10:34.172Z,148
2018-01-14T07:11:44.289Z,164
2018-01-14T07:12:54.399Z,180
2018-01-14T07:14:04.518Z,200
2018-01-14T07:15:14.689Z,220
2018-01-14T07:16:24.907Z,240
2018-01-14T07:17:35.043Z,264
2018-01-14T07:18:45.334Z,288
2018-01-14T07:19:55.495Z,312
2018-01-14T07:21:05.691Z,344
2018-01-14T07:22:15.854Z,372
2018-01-14T07:23:26.016Z,400
2018-01-14T07:24:36.151Z,428
2018-01-14T07:25:46.276Z,464
2018-01-14T07:26:56.403Z,500
2018-01-14T07:28:06.550Z,528
2018-01-14T07:29:16.681Z,564
2018-01-14T07:30:26.875Z,600
2018-01-14T07:31:36.640Z,636
2018-01-14T07:32:46.751Z,672
2018-01-14T07:33:56.882Z,712
2018-01-14T07:35:07.040Z,748
2018-01-14T07:36:17.205Z,788
2018-01-14T07:37:27.391Z,824
2018-01-14T07:38:37.541Z,864
2018-01-14T07:39:47.833Z,908
2018-01-14T07:40:57.973Z,948
2018-01-14T07:42:08.121Z,988
2018-01-14T07:43:18.417Z,1036
2018-01-14T07:44:28.622Z,1080
2018-01-14T07:45:38.749Z,1124
2018-01-14T07:46:48.869Z,1172
2018-01-14T07:47:58.999Z,1216
2018-01-14T07:49:09.139Z,1268
2018-01-14T07:50:19.334Z,1328
2018-01-14T07:51:29.596Z,1392
2018-01-14T07:52:39.808Z,1452
2018-01-14T07:53:49.976Z,1524
2018-01-14T07:55:00.200Z,1592
2018-01-14T07:56:10.416Z,1644
2018-01-14T07:57:20.592Z,1700
2018-01-14T07:58:30.723Z,1764
2018-01-14T07:59:40.858Z,1820
2018-01-14T08:00:50.983Z,1868
2018-01-14T08:02:01.088Z,1940
2018-01-14T08:03:11.217Z,2016
2018-01-14T08:04:21.334Z,2096
2018-01-14T08:05:31.504Z,2164
2018-01-14T08:06:41.361Z,2256
2018-01-14T08:07:51.503Z,2356
2018-01-14T08:09:01.660Z,2448
2018-01-14T08:10:11.780Z,2484
2018-01-14T08:11:21.911Z,2540
2018-01-14T08:12:32.116Z,2644
2018-01-14T08:13:42.264Z,2736
2018-01-14T08:14:52.511Z,2804
2018-01-14T08:16:02.421Z,2864
2018-01-14T08:17:12.550Z,2928
2018-01-14T08:18:22.673Z,2992
2018-01-14T08:19:32.882Z,3100
2018-01-14T08:20:42.810Z,3220
2018-01-14T08:21:52.929Z,3316
2018-01-14T08:23:03.088Z,3396
2018-01-14T08:24:13.228Z,3500
2018-01-14T08:25:23.407Z,3584
2018-01-14T08:26:33.540Z,3660
2018-01-14T08:27:43.725Z,3732
2018-01-14T08:28:53.848Z,3820
2018-01-14T08:30:03.987Z,3932
2018-01-14T08:31:14.186Z,4052
2018-01-14T08:32:24.337Z,4144
2018-01-14T08:33:34.586Z,4252
2018-01-14T08:34:44.805Z,4344
2018-01-14T08:35:55.060Z,4444
2018-01-14T08:37:05.289Z,4548
2018-01-14T08:38:15.578Z,4640
2018-01-14T08:39:25.733Z,4732
2018-01-14T08:40:36.000Z,4812
2018-01-14T08:41:46.126Z,4908
2018-01-14T08:42:56.424Z,4984
2018-01-14T08:44:06.587Z,5032
2018-01-14T08:45:16.878Z,5112
2018-01-14T08:46:27.113Z,5212
2018-01-14T08:47:37.301Z,5316
2018-01-14T08:48:47.531Z,5400
2018-01-14T08:49:57.701Z,5472
2018-01-14T08:51:07.699Z,5544
2018-01-14T08:52:17.953Z,5648
2018-01-14T08:53:28.079Z,5736
2018-01-14T08:54:38.245Z,5812
2018-01-14T08:55:48.385Z,5876
2018-01-14T08:56:58.569Z,5932
2018-01-14T08:58:08.720Z,6012
2018-01-14T08:59:18.991Z,6084
2018-01-14T09:00:29.127Z,6152
2018-01-14T09:01:39.284Z,6256
2018-01-14T09:02:49.402Z,6364
2018-01-14T09:03:59.323Z,6476
2018-01-14T09:05:09.470Z,6516
2018-01-14T09:06:19.705Z,6596
2018-01-14T09:07:29.848Z,6724
2018-01-14T09:08:40.039Z,6796
2018-01-14T09:09:50.190Z,6788
2018-01-14T09:11:00.336Z,6780
2018-01-14T09:12:10.493Z,6852
2018-01-14T09:13:20.825Z,6960
2018-01-14T09:14:30.977Z,7028
2018-01-14T09:15:41.135Z,7088
2018-01-14T09:16:51.289Z,7112
2018-01-14T09:18:01.448Z,7128
2018-01-14T09:19:11.385Z,7208
2018-01-14T09:20:21.580Z,7280
2018-01-14T09:21:31.776Z,7312
2018-01-14T09:22:41.677Z,7372
2018-01-14T09:23:51.810Z,7460
2018-01-14T09:25:01.992Z,7528
2018-01-14T09:26:12.233Z,7564
2018-01-14T09:27:22.031Z,7636
2018-01-14T09:28:32.179Z,7716
2018-01-14T09:29:42.325Z,7724
2018-01-14T09:30:52.600Z,7780
2018-01-14T09:32:02.751Z,7832
2018-01-14T09:33:12.927Z,7968
2018-01-14T09:34:23.229Z,8080
2018-01-14T09:35:33.519Z,8152
2018-01-14T09:36:43.743Z,8160
2018-01-14T09:37:53.900Z,8184
2018-01-14T09:39:04.106Z,8304
2018-01-14T09:40:14.264Z,8408
2018-01-14T09:41:24.163Z,8356
2018-01-14T09:42:34.398Z,8424
2018-01-14T09:43:44.579Z,8500
2018-01-14T09:44:54.770Z,8636
2018-01-14T09:46:05.006Z,8724
2018-01-14T09:47:15.149Z,8908
2018-01-14T09:48:25.313Z,9036
2018-01-14T09:49:35.465Z,9208
2018-01-14T09:50:45.590Z,9464
2018-01-14T09:51:55.755Z,9660
2018-01-14T09:53:05.962Z,9920
2018-01-14T09:54:16.082Z,9952
2018-01-14T09:55:26.308Z,9968
2018-01-14T09:56:36.516Z,10060
2018-01-14T09:57:46.699Z,10280
2018-01-14T09:58:56.594Z,10412
2018-01-14T10:00:06.821Z,10516
2018-01-14T10:01:16.988Z,10708
2018-01-14T10:02:27.245Z,11000
2018-01-14T10:03:37.404Z,11464
2018-01-14T10:04:47.555Z,11920
2018-01-14T10:05:57.733Z,12516
2018-01-14T10:07:07.855Z,13648
2018-01-14T10:08:18.297Z,16448
2018-01-14T10:09:28.482Z,20320
2018-01-14T10:10:38.642Z,22432
2018-01-14T10:11:48.855Z,23744
2018-01-14T10:12:59.015Z,22464
2018-01-14T10:14:09.222Z,24192
2018-01-14T10:15:19.359Z,22368
2018-01-14T10:16:29.557Z,22528
2018-01-14T10:17:39.712Z,23488
2018-01-14T10:18:49.891Z,22688
2018-01-14T10:20:00.098Z,20992
2018-01-14T10:21:10.267Z,21152
2018-01-14T10:22:20.449Z,22528
2018-01-14T10:23:30.695Z,24864
2018-01-14T10:24:40.932Z,17152
2018-01-14T10:25:51.191Z,19808
2018-01-14T10:27:01.374Z,25152
2018-01-14T10:28:11.694Z,24864
2018-01-14T10:29:21.878Z,25792
2018-01-14T10:30:32.073Z,25632
2018-01-14T10:31:42.328Z,26656
2018-01-14T10:32:52.291Z,26272
2018-01-14T10:34:02.218Z,26976
2018-01-14T10:35:12.403Z,25728
2018-01-14T10:36:23.799Z,25696
2018-01-14T10:37:34.003Z,26272
2018-01-14T10:38:44.176Z,28416
2018-01-14T10:39:54.065Z,27712
2018-01-14T10:41:04.253Z,28160
2018-01-14T10:42:14.417Z,27840
2018-01-14T10:43:24.442Z,28384
2018-01-14T10:44:34.669Z,27840
2018-01-14T10:45:44.872Z,28032
2018-01-14T10:46:55.151Z,27552
2018-01-14T10:48:05.357Z,28224
2018-01-14T10:49:15.563Z,29696
2018-01-14T10:50:25.789Z,26368
2018-01-14T10:51:35.992Z,28896
2018-01-14T10:52:46.229Z,29792
2018-01-14T10:53:56.532Z,28512
2018-01-14T10:55:06.730Z,30592
2018-01-14T10:56:16.961Z,30080
2018-01-14T10:57:27.195Z,32000
2018-01-14T10:58:37.382Z,29888
2018-01-14T10:59:47.576Z,29536
2018-01-14T11:00:57.774Z,29472
2018-01-14T11:02:08.011Z,29728
2018-01-14T11:03:18.278Z,30144
2018-01-14T11:04:28.486Z,30656
2018-01-14T11:05:38.681Z,30336
2018-01-14T11:06:49.829Z,31872
2018-01-14T11:07:59.977Z,30400
2018-01-14T11:09:14.530Z,31328
2018-01-14T11:10:24.917Z,31648
2018-01-14T11:11:35.063Z,31488
2018-01-14T11:12:45.309Z,32000
2018-01-14T11:13:55.488Z,31456
2018-01-14T11:15:05.693Z,31040
2018-01-14T11:16:15.890Z,31776
2018-01-14T11:17:26.122Z,30944
2018-01-14T11:18:37.046Z,31648
2018-01-14T11:19:47.244Z,32096
2018-01-14T11:20:57.451Z,30400
2018-01-14T11:22:07.629Z,32608
2018-01-14T11:23:17.851Z,30528
2018-01-14T11:24:28.040Z,28448
2018-01-14T11:25:38.277Z,31264
2018-01-14T11:26:48.503Z,30240
2018-01-14T11:27:58.671Z,31552
2018-01-14T11:29:08.852Z,30368
2018-01-14T11:30:19.136Z,33344
2018-01-14T11:31:29.328Z,31008
2018-01-14T11:32:39.688Z,31744
2018-01-14T11:33:49.877Z,33216
2018-01-14T11:35:00.093Z,29376
2018-01-14T11:36:10.387Z,30528
2018-01-14T11:37:20.559Z,33664
2018-01-14T11:38:30.790Z,32672
2018-01-14T11:39:40.948Z,32320
2018-01-14T11:40:51.115Z,31808
2018-01-14T11:42:01.305Z,33888
2018-01-14T11:43:11.493Z,31840
2018-01-14T11:44:21.868Z,31968
2018-01-14T11:45:32.096Z,31008
2018-01-14T11:46:42.291Z,29536
2018-01-14T11:47:52.539Z,31616
2018-01-14T11:49:02.718Z,29440
2018-01-14T11:50:12.915Z,30080
2018-01-14T11:51:23.085Z,29760
2018-01-14T11:52:33.373Z,29760
2018-01-14T11:53:43.564Z,30080
2018-01-14T11:54:53.870Z,29984
2018-01-14T11:56:04.062Z,28672
2018-01-14T11:57:14.302Z,28896
2018-01-14T11:58:24.478Z,30784
2018-01-14T11:59:34.693Z,30016
2018-01-14T12:00:44.877Z,27936
2018-01-14T12:01:55.098Z,28800
2018-01-14T12:03:05.470Z,28864
2018-01-14T12:04:15.668Z,22752
2018-01-14T12:05:25.890Z,27488
2018-01-14T12:06:36.059Z,32160
2018-01-14T12:07:46.264Z,28128
2018-01-14T12:08:56.502Z,28064
2018-01-14T12:10:07.268Z,30624
2018-01-14T12:11:17.600Z,30912
2018-01-14T12:12:27.921Z,28352
2018-01-14T12:13:38.192Z,28064
2018-01-14T12:14:48.384Z,28160
2018-01-14T12:15:58.742Z,26624
2018-01-14T12:17:09.477Z,23520
2018-01-14T12:18:20.355Z,21728
2018-01-14T12:19:31.169Z,20032
2018-01-14T12:20:41.517Z,17312
2018-01-14T12:21:51.930Z,14496
2018-01-14T12:23:02.177Z,13036
2018-01-14T12:24:12.372Z,12152
2018-01-14T12:25:22.618Z,11784
2018-01-14T12:26:32.830Z,11304
2018-01-14T12:27:43.023Z,10892
2018-01-14T12:28:53.209Z,10536
2018-01-14T12:30:03.517Z,10292
2018-01-14T12:31:13.770Z,10016
2018-01-14T12:32:23.951Z,9864
2018-01-14T12:33:34.140Z,9600
2018-01-14T12:34:44.325Z,9392
2018-01-14T12:35:54.588Z,9300
2018-01-14T12:37:04.764Z,9080
2018-01-14T12:38:15.435Z,9064
2018-01-14T12:39:26.303Z,8968
2018-01-14T12:40:36.859Z,8892
2018-01-14T12:41:47.687Z,8888
2018-01-14T12:42:58.635Z,8732
2018-01-14T12:44:09.097Z,8624
2018-01-14T12:45:19.992Z,8484
2018-01-14T12:46:30.238Z,8324
2018-01-14T12:47:40.408Z,8112
2018-01-14T12:48:50.574Z,7924
2018-01-14T12:50:00.756Z,7780
2018-01-14T12:51:10.946Z,7640
2018-01-14T12:52:21.131Z,7540
2018-01-14T12:53:31.273Z,7508
2018-01-14T12:54:41.491Z,7488
2018-01-14T12:55:51.774Z,7468
2018-01-14T12:57:01.983Z,7436
2018-01-14T12:58:12.304Z,7408
2018-01-14T12:59:22.472Z,7424
2018-01-14T13:00:32.728Z,7412
2018-01-14T13:01:42.769Z,7396
2018-01-14T13:02:52.985Z,7328
2018-01-14T13:04:03.185Z,7196
2018-01-14T13:05:13.214Z,7164
2018-01-14T13:06:23.734Z,7052
2018-01-14T13:07:33.921Z,6984
2018-01-14T13:08:44.110Z,6940
2018-01-14T13:09:54.109Z,6900
2018-01-14T13:11:04.371Z,6944
2018-01-14T13:12:14.581Z,6884
2018-01-14T13:13:24.920Z,6836
2018-01-14T13:14:35.253Z,6752
2018-01-14T13:15:45.466Z,6648
2018-01-14T13:16:55.764Z,6600
2018-01-14T13:18:06.020Z,6544
2018-01-14T13:19:16.298Z,6476
2018-01-14T13:20:26.572Z,6380
2018-01-14T13:21:36.761Z,6304
2018-01-14T13:22:46.945Z,6224
2018-01-14T13:23:57.181Z,6148
2018-01-14T13:25:07.350Z,6064
2018-01-14T13:26:17.525Z,5964
2018-01-14T13:27:27.822Z,5896
2018-01-14T13:28:38.020Z,5836
2018-01-14T13:29:48.222Z,5804
2018-01-14T13:30:58.376Z,5728
2018-01-14T13:32:08.677Z,5664
2018-01-14T13:33:18.901Z,5604
2018-01-14T13:34:29.080Z,5536
2018-01-14T13:35:39.269Z,5472
2018-01-14T13:36:49.467Z,5448
2018-01-14T13:37:59.690Z,5440
2018-01-14T13:39:09.871Z,5416
2018-01-14T13:40:20.242Z,5368
2018-01-14T13:41:30.416Z,5328
2018-01-14T13:42:40.677Z,5276
2018-01-14T13:43:50.970Z,5216
2018-01-14T13:45:01.153Z,5176
2018-01-14T13:46:11.383Z,5160
2018-01-14T13:47:21.644Z,5120
2018-01-14T13:48:31.849Z,5040
2018-01-14T13:49:41.815Z,4956
2018-01-14T13:50:52.053Z,4892
2018-01-14T13:52:02.294Z,4856
2018-01-14T13:53:12.568Z,4820
2018-01-14T13:54:22.799Z,4772
2018-01-14T13:55:33.057Z,4708
2018-01-14T13:56:43.358Z,4652
2018-01-14T13:57:53.524Z,4612
2018-01-14T13:59:03.706Z,4572
2018-01-14T14:00:14.877Z,4488
2018-01-14T14:01:25.106Z,4400
2018-01-14T14:02:35.505Z,4312
2018-01-14T14:03:45.706Z,4252
2018-01-14T14:04:55.953Z,4192
2018-01-14T14:06:06.152Z,4132
2018-01-14T14:07:16.373Z,4084
2018-01-14T14:08:26.582Z,4036
2018-01-14T14:09:36.718Z,3960
2018-01-14T14:10:47.178Z,3920
2018-01-14T14:11:57.586Z,3868
2018-01-14T14:13:07.790Z,3792
2018-01-14T14:14:18.046Z,3728
2018-01-14T14:15:28.401Z,3704
2018-01-14T14:16:38.753Z,3676
2018-01-14T14:17:48.952Z,3640
2018-01-14T14:18:59.142Z,3564
2018-01-14T14:20:09.364Z,3496
2018-01-14T14:21:19.556Z,3440
2018-01-14T14:22:29.798Z,3372
2018-01-14T14:23:40.021Z,3308
2018-01-14T14:24:49.862Z,3252
2018-01-14T14:26:00.289Z,3204
2018-01-14T14:27:10.544Z,3152
2018-01-14T14:28:20.796Z,3088
2018-01-14T14:29:31.023Z,3020
2018-01-14T14:30:41.206Z,2952
2018-01-14T14:31:51.391Z,2880
2018-01-14T14:33:01.648Z,2804
2018-01-14T14:34:11.869Z,2716
2018-01-14T14:35:21.644Z,2624
2018-01-14T14:36:31.813Z,2560
2018-01-14T14:37:42.045Z,2500
2018-01-14T14:38:52.315Z,2436
2018-01-14T14:40:02.560Z,2380
2018-01-14T14:41:12.486Z,2324
2018-01-14T14:42:22.867Z,2256
2018-01-14T14:43:33.101Z,2196
2018-01-14T14:44:43.284Z,2128
2018-01-14T14:45:53.510Z,2064
2018-01-14T14:47:03.757Z,2000
2018-01-14T14:48:13.961Z,1944
2018-01-14T14:49:24.132Z,1884
2018-01-14T14:50:34.434Z,1812
2018-01-14T14:51:44.781Z,1740
2018-01-14T14:52:55.014Z,1680
2018-01-14T14:54:05.250Z,1624
2018-01-14T14:55:15.442Z,1564
2018-01-14T14:56:25.768Z,1508
2018-01-14T14:57:35.962Z,1448
2018-01-14T14:58:46.307Z,1388
2018-01-14T14:59:56.449Z,1324
2018-01-14T15:01:06.636Z,1260
2018-01-14T15:02:17.131Z,1212
2018-01-14T15:03:27.427Z,1160
2018-01-14T15:04:37.679Z,1104
2018-01-14T15:05:47.950Z,1044
2018-01-14T15:06:57.885Z,992
2018-01-14T15:08:08.044Z,936
2018-01-14T15:09:18.280Z,888
2018-01-14T15:10:28.501Z,840
2018-01-14T15:11:38.671Z,792
2018-01-14T15:12:48.886Z,744
2018-01-14T15:13:59.049Z,700
2018-01-14T15:15:09.273Z,660
2018-01-14T15:16:19.502Z,612
2018-01-14T15:17:29.668Z,576
2018-01-14T15:18:39.839Z,544
2018-01-14T15:19:50.040Z,508
2018-01-14T15:21:00.273Z,468
2018-01-14T15:22:10.673Z,432
2018-01-14T15:23:20.895Z,400
2018-01-14T15:24:31.099Z,368
2018-01-14T15:25:41.363Z,340
2018-01-14T15:26:51.595Z,308
2018-01-14T15:28:01.836Z,284
2018-01-14T15:29:12.010Z,260
2018-01-14T15:30:22.204Z,236
2018-01-14T15:31:33.432Z,216
2018-01-14T15:32:43.659Z,196
2018-01-14T15:33:53.687Z,176
2018-01-14T15:35:03.902Z,160
2018-01-14T15:36:14.167Z,140
2018-01-14T15:37:24.390Z,128
2018-01-14T15:38:34.632Z,112
2018-01-14T15:39:44.911Z,100
2018-01-14T15:40:55.195Z,88
2018-01-14T15:42:05.396Z,76
2018-01-14T15:43:15.453Z,68
2018-01-14T15:44:25.617Z,60
2018-01-14T15:45:35.851Z,52
2018-01-14T15:46:46.081Z,44
2018-01-14T15:47:56.299Z,36
2018-01-14T15:49:06.508Z,32
2018-01-14T15:50:16.748Z,24
2018-01-14T15:51:27.069Z,24
2018-01-14T15:52:37.246Z,20
2018-01-14T15:53:47.497Z,16
2018-01-14T15:54:57.721Z,12
2018-01-14T15:56:07.944Z,12
2018-01-14T15:57:18.208Z,8
2018-01-14T15:58:28.537Z,4
2018-01-14T15:59:38.753Z,8
2018-01-14T16:00:48.958Z,4
2018-01-14T16:01:59.166Z,4
2018-01-14T16:03:09.401Z,4
2018-01-14T16:04:19.625Z,4
2018-01-14T16:05:29.837Z,0
2018-01-14T16:06:40.031Z,4
2018-01-14T16:07:49.997Z,0
2018-01-14T16:09:00.312Z,0
2018-01-14T16:10:10.544Z,4
2018-01-14T16:11:20.488Z,4
2018-01-14T16:12:30.696Z,0
2018-01-14T16:13:40.949Z,0
2018-01-14T16:14:51.161Z,0
2018-01-14T16:16:01.374Z,0
2018-01-14T16:17:11.667Z,0
2018-01-14T16:18:21.859Z,0